createdAt,value
2017-06-05T00:02:22.944Z,17.77
2017-06-05T00:04:51.276Z,18.20
2017-06-05T00:07:18.816Z,17.83
2017-06-05T00:09:46.370Z,17.10
2017-06-05T00:12:13.915Z,15.57
2017-06-05T00:14:41.459Z,16.27
2017-06-05T00:17:09.004Z,14.67
2017-06-05T00:19:37.318Z,16.07
2017-06-05T00:22:04.872Z,16.20
2017-06-05T00:24:32.415Z,16.93
2017-06-05T00:26:59.960Z,14.93
2017-06-05T00:29:28.263Z,15.47
2017-06-05T00:31:55.800Z,18.03
2017-06-05T00:34:24.128Z,14.23
2017-06-05T00:36:51.667Z,15.93
2017-06-05T00:39:19.204Z,16.97
2017-06-05T00:41:46.745Z,18.10
2017-06-05T00:44:15.069Z,17.57
2017-06-05T00:46:42.655Z,20.27
2017-06-05T00:49:10.201Z,24.10
2017-06-05T00:51:37.739Z,25.07
2017-06-05T00:54:05.281Z,29.20
2017-06-05T00:56:32.819Z,32.13
2017-06-05T00:59:01.131Z,31.03
2017-06-05T01:01:28.680Z,30.53
2017-06-05T01:03:56.229Z,30.63
2017-06-05T01:06:23.762Z,30.70
2017-06-05T01:08:51.379Z,31.37
2017-06-05T01:11:18.926Z,30.17
2017-06-05T01:13:46.473Z,27.50
2017-06-05T01:16:14.007Z,28.10
2017-06-05T01:18:42.317Z,26.63
2017-06-05T01:21:09.871Z,24.90
2017-06-05T01:23:37.425Z,24.07
2017-06-05T01:26:04.968Z,22.70
2017-06-05T01:28:32.516Z,20.90
2017-06-05T01:31:00.074Z,21.53
2017-06-05T01:33:28.382Z,20.90
2017-06-05T01:35:55.941Z,19.83
2017-06-05T01:38:23.483Z,18.17
2017-06-05T01:40:51.019Z,18.07
2017-06-05T01:43:19.351Z,18.10
2017-06-05T01:45:46.892Z,16.33
2017-06-05T01:48:14.439Z,16.97
2017-06-05T01:50:41.979Z,16.83
2017-06-05T01:53:10.289Z,17.20
2017-06-05T01:55:37.827Z,17.10
2017-06-05T01:58:05.432Z,16.47
2017-06-05T02:00:32.987Z,17.73
2017-06-05T02:03:00.527Z,16.40
2017-06-05T02:05:28.071Z,17.27
2017-06-05T02:07:55.617Z,17.50
2017-06-05T02:10:23.163Z,17.07
2017-06-05T02:12:51.486Z,17.13
2017-06-05T02:15:19.031Z,17.60
2017-06-05T02:17:46.578Z,15.77
2017-06-05T02:20:14.120Z,16.30
2017-06-05T02:22:41.673Z,15.60
2017-06-05T02:25:10.213Z,13.30
2017-06-05T02:27:37.751Z,14.30
2017-06-05T02:30:05.298Z,14.03
2017-06-05T02:32:32.859Z,13.57
2017-06-05T02:35:00.404Z,13.73
2017-06-05T02:37:28.316Z,15.00
2017-06-05T02:39:55.860Z,14.77
2017-06-05T02:42:23.400Z,13.20
2017-06-05T02:44:50.943Z,12.90
2017-06-05T02:47:18.493Z,14.90
2017-06-05T02:49:46.057Z,13.50
2017-06-05T02:52:14.364Z,13.40
2017-06-05T02:54:41.919Z,12.77
2017-06-05T02:57:09.459Z,15.33
2017-06-05T02:59:37.063Z,13.70
2017-06-05T03:02:04.615Z,14.63
2017-06-05T03:04:32.155Z,13.60
2017-06-05T03:06:59.721Z,13.57
2017-06-05T03:09:27.264Z,12.73
2017-06-05T03:11:54.804Z,19.83
2017-06-05T03:14:22.363Z,25.37
2017-06-05T03:16:49.908Z,38.33
2017-06-05T03:19:18.213Z,38.40
2017-06-05T03:21:45.752Z,38.73
2017-06-05T03:24:14.062Z,35.50
2017-06-05T03:26:41.844Z,32.07
2017-06-05T03:29:09.395Z,31.40
2017-06-05T03:31:36.946Z,29.57
2017-06-05T03:34:04.504Z,26.23
2017-06-05T03:36:32.048Z,28.30
2017-06-05T03:38:59.603Z,24.47
2017-06-05T03:41:27.151Z,24.80
2017-06-05T03:43:54.705Z,23.50
2017-06-05T03:46:22.251Z,22.20
2017-06-05T03:48:50.555Z,20.67
2017-06-05T03:51:18.113Z,25.83
2017-06-05T03:53:45.660Z,19.17
2017-06-05T03:56:13.203Z,23.60
2017-06-05T03:58:41.511Z,19.73
2017-06-05T04:01:09.052Z,19.77
2017-06-05T04:03:36.599Z,19.60
2017-06-05T04:06:04.903Z,19.23
2017-06-05T04:08:32.447Z,18.50
2017-06-05T04:10:59.999Z,17.40
2017-06-05T04:13:27.539Z,17.37
2017-06-05T04:15:55.087Z,16.83
2017-06-05T04:18:22.628Z,17.63
2017-06-05T04:20:50.172Z,17.33
2017-06-05T04:23:18.093Z,18.00
2017-06-05T04:25:46.409Z,15.63
2017-06-05T04:28:13.983Z,18.00
2017-06-05T04:30:41.528Z,17.70
2017-06-05T04:33:09.075Z,18.20
2017-06-05T04:35:36.663Z,18.40
2017-06-05T04:38:04.203Z,17.13
2017-06-05T04:40:31.757Z,15.47
2017-06-05T04:42:59.306Z,16.37
2017-06-05T04:45:26.850Z,15.90
2017-06-05T04:47:54.401Z,14.97
2017-06-05T04:50:22.703Z,14.30
2017-06-05T04:52:50.252Z,15.70
2017-06-05T04:55:17.795Z,18.57
2017-06-05T04:57:46.100Z,15.10
2017-06-05T05:00:13.635Z,14.97
2017-06-05T05:02:41.233Z,13.27
2017-06-05T05:05:08.798Z,15.93
2017-06-05T05:07:36.340Z,14.47
2017-06-05T05:10:03.883Z,11.43
2017-06-05T05:12:31.485Z,11.00
2017-06-05T05:14:59.024Z,13.60
2017-06-05T05:17:26.713Z,10.33
2017-06-05T05:19:54.429Z,10.00
2017-06-05T05:22:21.963Z,10.47
2017-06-05T05:24:50.427Z,10.90
2017-06-05T05:27:18.041Z,11.50
2017-06-05T05:29:45.607Z,11.97
2017-06-05T05:32:13.176Z,12.60
2017-06-05T05:34:40.715Z,10.23
2017-06-05T05:37:09.124Z,10.53
2017-06-05T05:39:36.664Z,10.03
2017-06-05T05:42:04.314Z,12.27
2017-06-05T05:44:31.861Z,16.83
2017-06-05T05:46:59.548Z,9.60
2017-06-05T05:49:27.090Z,23.70
2017-06-05T05:51:54.679Z,12.57
2017-06-05T05:54:22.224Z,10.33
2017-06-05T05:56:49.875Z,9.53
2017-06-05T05:59:17.431Z,9.83
2017-06-05T06:01:45.087Z,9.00
2017-06-05T06:04:12.624Z,8.13
2017-06-05T06:06:40.192Z,9.60
2017-06-05T06:09:07.723Z,8.73
2017-06-05T06:11:36.032Z,7.10
2017-06-05T06:14:03.573Z,8.20
2017-06-05T06:16:31.139Z,8.97
2017-06-05T06:18:58.683Z,10.83
2017-06-05T06:21:26.992Z,12.37
2017-06-05T06:23:54.567Z,7.60
2017-06-05T06:26:22.109Z,7.73
2017-06-05T06:28:49.635Z,6.60
2017-06-05T06:31:17.964Z,6.20
2017-06-05T06:33:45.507Z,8.80
2017-06-05T06:36:13.044Z,6.70
2017-06-05T06:38:40.575Z,5.60
2017-06-05T06:41:08.871Z,6.60
2017-06-05T06:43:36.415Z,6.10
2017-06-05T06:46:04.720Z,5.57
2017-06-05T06:48:32.269Z,6.83
2017-06-05T06:50:59.807Z,4.40
2017-06-05T06:53:28.115Z,5.53
2017-06-05T06:55:55.660Z,6.00
2017-06-05T06:58:23.196Z,5.87
2017-06-05T07:00:51.500Z,5.80
2017-06-05T07:03:19.041Z,5.23
2017-06-05T07:05:47.340Z,5.93
2017-06-05T07:08:14.883Z,5.30
2017-06-05T07:10:42.455Z,5.87
2017-06-05T07:13:09.988Z,5.83
2017-06-05T07:15:38.303Z,7.23
2017-06-05T07:18:05.843Z,4.47
2017-06-05T07:20:33.386Z,8.50
2017-06-05T07:23:01.689Z,4.87
2017-06-05T07:25:29.224Z,4.50
2017-06-05T07:27:56.768Z,3.50
2017-06-05T07:30:25.068Z,7.63
2017-06-05T07:32:52.619Z,4.77
2017-06-05T07:35:20.163Z,3.13
2017-06-05T07:37:48.463Z,4.20
2017-06-05T07:40:16.003Z,4.80
2017-06-05T07:42:44.304Z,6.40
2017-06-05T07:45:11.847Z,4.30
2017-06-05T07:47:40.143Z,5.03
2017-06-05T07:50:07.683Z,4.40
2017-06-05T07:52:35.223Z,4.13
2017-06-05T07:55:02.760Z,4.77
2017-06-05T07:57:30.304Z,4.13
2017-06-05T07:59:57.842Z,5.60
2017-06-05T08:02:25.377Z,3.70
2017-06-05T08:04:52.915Z,7.43
2017-06-05T08:07:21.216Z,5.20
2017-06-05T08:09:48.761Z,3.83
2017-06-05T08:12:17.059Z,3.90
2017-06-05T08:14:44.587Z,3.00
2017-06-05T08:17:12.892Z,4.00
2017-06-05T08:19:40.423Z,2.57
2017-06-05T08:22:08.738Z,3.67
2017-06-05T08:24:36.276Z,4.67
2017-06-05T08:27:03.836Z,5.00
2017-06-05T08:29:31.375Z,4.67
2017-06-05T08:31:59.684Z,4.23
2017-06-05T08:34:27.236Z,3.23
2017-06-05T08:36:54.784Z,3.90
2017-06-05T08:39:22.323Z,6.00
2017-06-05T08:41:50.667Z,4.60
2017-06-05T08:44:18.208Z,3.07
2017-06-05T08:46:45.756Z,7.00
2017-06-05T08:49:13.290Z,4.53
2017-06-05T08:51:41.608Z,4.00
2017-06-05T08:54:09.144Z,4.63
2017-06-05T08:56:36.686Z,3.37
2017-06-05T08:59:04.231Z,4.33
2017-06-05T09:01:32.538Z,2.67
2017-06-05T09:04:00.076Z,3.00
2017-06-05T09:06:28.389Z,5.33
2017-06-05T09:08:55.931Z,3.70
2017-06-05T09:11:23.471Z,3.60
2017-06-05T09:13:51.771Z,2.70
2017-06-05T09:16:19.304Z,5.03
2017-06-05T09:18:47.614Z,3.60
2017-06-05T09:21:15.148Z,3.17
2017-06-05T09:23:42.701Z,2.70
2017-06-05T09:26:19.832Z,5.17
2017-06-05T09:28:47.373Z,6.30
2017-06-05T09:31:14.912Z,3.83
2017-06-05T09:33:42.447Z,3.60
2017-06-05T09:36:10.758Z,3.17
2017-06-05T09:38:38.296Z,6.00
2017-06-05T09:41:05.851Z,3.33
2017-06-05T09:43:33.387Z,4.90
2017-06-05T09:46:00.923Z,8.07
2017-06-05T09:48:28.454Z,4.00
2017-06-05T09:50:56.004Z,5.60
2017-06-05T09:53:23.548Z,3.33
2017-06-05T09:55:51.083Z,6.43
2017-06-05T09:58:18.617Z,4.63
2017-06-05T10:00:46.151Z,2.77
2017-06-05T10:03:13.684Z,3.10
2017-06-05T10:05:41.223Z,2.93
2017-06-05T10:08:09.543Z,3.47
2017-06-05T10:10:37.075Z,4.17
2017-06-05T10:13:04.765Z,3.80
2017-06-05T10:15:32.303Z,3.20
2017-06-05T10:17:59.851Z,3.17
2017-06-05T10:20:27.392Z,3.80
2017-06-05T10:22:55.688Z,3.93
2017-06-05T10:25:23.235Z,2.53
2017-06-05T10:27:51.539Z,3.23
2017-06-05T10:30:19.083Z,4.60
2017-06-05T10:32:46.623Z,3.40
2017-06-05T10:35:14.927Z,2.90
2017-06-05T10:37:42.459Z,3.33
2017-06-05T10:40:10.764Z,5.27
2017-06-05T10:42:38.308Z,3.30
2017-06-05T10:45:05.847Z,2.90
2017-06-05T10:47:34.144Z,3.40
2017-06-05T10:50:01.683Z,3.33
2017-06-05T10:52:29.992Z,3.33
2017-06-05T10:54:57.542Z,2.73
2017-06-05T10:57:25.076Z,3.23
2017-06-05T10:59:53.375Z,3.33
2017-06-05T11:02:20.916Z,2.83
2017-06-05T11:04:49.219Z,2.60
2017-06-05T11:07:16.777Z,2.87
2017-06-05T11:09:44.308Z,4.23
2017-06-05T11:12:12.619Z,5.93
2017-06-05T11:14:40.155Z,2.80
2017-06-05T11:17:07.699Z,3.30
2017-06-05T11:19:36.011Z,3.30
2017-06-05T11:22:03.550Z,2.80
2017-06-05T11:24:31.847Z,2.90
2017-06-05T11:26:59.384Z,2.47
2017-06-05T11:29:27.682Z,3.87
2017-06-05T11:31:55.224Z,3.80
2017-06-05T11:34:22.775Z,2.30
2017-06-05T11:36:50.322Z,2.73
2017-06-05T11:39:18.634Z,2.80
2017-06-05T11:41:46.168Z,2.90
2017-06-05T11:44:14.477Z,3.50
2017-06-05T11:46:42.048Z,4.40
2017-06-05T11:49:09.578Z,3.23
2017-06-05T11:51:37.117Z,5.67
2017-06-05T11:54:05.431Z,11.07
2017-06-05T11:56:32.979Z,4.43
2017-06-05T11:59:00.520Z,15.67
2017-06-05T12:01:28.061Z,5.90
2017-06-05T12:03:56.395Z,3.50
2017-06-05T12:06:23.939Z,6.03
2017-06-05T12:08:51.508Z,3.20
2017-06-05T12:11:19.052Z,4.00
2017-06-05T12:13:46.584Z,3.40
2017-06-05T12:16:14.879Z,3.50
2017-06-05T12:18:42.418Z,5.70
2017-06-05T12:21:10.731Z,3.43
2017-06-05T12:23:38.267Z,8.23
2017-06-05T12:26:05.816Z,12.23
2017-06-05T12:28:33.369Z,3.30
2017-06-05T12:31:01.689Z,3.63
2017-06-05T12:33:29.345Z,4.77
2017-06-05T12:35:56.905Z,3.17
2017-06-05T12:38:24.443Z,7.07
2017-06-05T12:40:51.984Z,2.87
2017-06-05T12:43:20.291Z,2.90
2017-06-05T12:45:47.839Z,3.07
2017-06-05T12:48:15.467Z,2.67
2017-06-05T12:50:43.763Z,3.80
2017-06-05T12:53:11.302Z,3.17
2017-06-05T12:55:39.613Z,7.13
2017-06-05T12:58:07.207Z,3.70
2017-06-05T13:00:34.755Z,4.33
2017-06-05T13:03:02.295Z,3.77
2017-06-05T13:05:29.957Z,5.23
2017-06-05T13:07:57.495Z,3.00
2017-06-05T13:10:25.043Z,2.60
2017-06-05T13:12:53.346Z,3.00
2017-06-05T13:15:21.032Z,2.07
2017-06-05T13:17:48.901Z,5.57
2017-06-05T13:20:16.579Z,3.40
2017-06-05T13:22:44.130Z,5.00
2017-06-05T13:25:11.666Z,2.50
2017-06-05T13:27:39.994Z,2.87
2017-06-05T13:30:08.298Z,3.17
2017-06-05T13:32:35.847Z,3.10
2017-06-05T13:35:03.503Z,6.50
2017-06-05T13:37:31.806Z,1.97
2017-06-05T13:39:59.336Z,3.83
2017-06-05T13:42:27.645Z,1.80
2017-06-05T13:44:55.188Z,5.53
2017-06-05T13:47:22.732Z,2.43
2017-06-05T13:49:51.065Z,1.97
2017-06-05T13:52:18.603Z,2.03
2017-06-05T13:54:46.148Z,2.13
2017-06-05T13:57:13.681Z,2.00
2017-06-05T13:59:41.992Z,4.10
2017-06-05T14:02:09.531Z,2.07
2017-06-05T14:04:37.068Z,2.20
2017-06-05T14:07:05.379Z,3.23
2017-06-05T14:09:32.911Z,3.30
2017-06-05T14:12:01.224Z,3.70
2017-06-05T14:14:28.764Z,5.10
2017-06-05T14:16:56.299Z,3.90
2017-06-05T14:19:24.601Z,5.27
2017-06-05T14:21:52.145Z,2.80
2017-06-05T14:24:19.754Z,3.60
2017-06-05T14:26:47.294Z,2.10
2017-06-05T14:29:14.830Z,5.20
2017-06-05T14:31:42.375Z,1.50
2017-06-05T14:34:10.711Z,1.57
2017-06-05T14:36:38.267Z,2.27
2017-06-05T14:39:06.318Z,1.30
2017-06-05T14:41:33.860Z,1.50
2017-06-05T14:44:01.391Z,3.07
2017-06-05T14:46:29.817Z,2.47
2017-06-05T14:48:58.288Z,1.30
2017-06-05T14:51:25.828Z,3.40
2017-06-05T14:53:53.366Z,1.23
2017-06-05T14:56:23.508Z,3.23
2017-06-05T14:58:51.052Z,4.77
2017-06-05T15:01:19.607Z,2.47
2017-06-05T15:03:47.248Z,2.93
2017-06-05T15:06:14.816Z,1.97
2017-06-05T15:08:42.356Z,1.37
2017-06-05T15:11:10.418Z,2.00
2017-06-05T15:13:37.963Z,1.37
2017-06-05T15:16:05.523Z,3.00
2017-06-05T15:18:33.068Z,4.73
2017-06-05T15:21:01.376Z,2.30
2017-06-05T15:23:28.968Z,1.50
2017-06-05T15:25:56.522Z,4.20
2017-06-05T15:28:24.069Z,3.30
2017-06-05T15:30:51.618Z,1.87
2017-06-05T15:33:19.170Z,2.27
2017-06-05T15:35:46.736Z,4.30
2017-06-05T15:38:14.290Z,2.70
2017-06-05T15:40:41.827Z,2.30
2017-06-05T15:43:09.366Z,3.13
2017-06-05T15:45:37.677Z,3.77
2017-06-05T15:48:05.214Z,3.10
2017-06-05T15:50:32.756Z,3.20
2017-06-05T15:53:01.057Z,2.07
2017-06-05T15:55:28.589Z,1.67
2017-06-05T15:57:56.899Z,2.73
2017-06-05T16:00:24.483Z,2.40
2017-06-05T16:02:52.029Z,1.87
2017-06-05T16:05:19.559Z,1.77
2017-06-05T16:07:47.097Z,1.80
2017-06-05T16:10:15.399Z,2.00
2017-06-05T16:12:42.935Z,1.63
2017-06-05T16:15:11.248Z,2.90
2017-06-05T16:20:10.854Z,2.47
2017-06-05T16:22:38.391Z,2.80
2017-06-05T16:25:06.727Z,2.53
2017-06-05T16:27:34.261Z,2.17
2017-06-05T16:30:01.812Z,2.50
2017-06-05T16:32:29.357Z,3.53
2017-06-05T16:34:57.655Z,2.37
2017-06-05T16:37:25.191Z,3.67
2017-06-05T16:39:53.491Z,5.53
2017-06-05T16:42:21.035Z,2.20
2017-06-05T16:44:48.576Z,2.10
2017-06-05T16:47:16.895Z,4.50
2017-06-05T16:49:44.428Z,4.17
2017-06-05T16:52:11.968Z,2.03
2017-06-05T16:54:40.294Z,2.67
2017-06-05T16:57:07.839Z,6.20
2017-06-05T16:59:35.371Z,3.27
2017-06-05T17:02:03.669Z,3.70
2017-06-05T17:04:31.200Z,5.63
2017-06-05T17:06:59.503Z,2.30
2017-06-05T17:09:27.047Z,2.80
2017-06-05T17:11:54.591Z,2.00
2017-06-05T17:14:22.891Z,6.30
2017-06-05T17:16:50.428Z,3.10
2017-06-05T17:19:18.731Z,3.83
2017-06-05T17:21:46.281Z,6.03
2017-06-05T17:24:13.825Z,2.13
2017-06-05T17:26:42.134Z,3.00
2017-06-05T17:29:09.680Z,2.13
2017-06-05T17:31:37.227Z,4.27
2017-06-05T17:34:04.779Z,5.83
2017-06-05T17:36:33.076Z,2.60
2017-06-05T17:39:00.620Z,3.73
2017-06-05T17:41:28.163Z,3.43
2017-06-05T17:43:56.474Z,3.20
2017-06-05T17:46:24.019Z,3.73
2017-06-05T17:48:51.555Z,3.13
2017-06-05T17:51:19.863Z,4.17
2017-06-05T17:53:47.396Z,4.00
2017-06-05T17:56:15.701Z,8.03
2017-06-05T17:58:43.252Z,4.73
2017-06-05T18:01:10.786Z,3.87
2017-06-05T18:03:39.091Z,6.10
2017-06-05T18:06:06.625Z,4.63
2017-06-05T18:08:34.927Z,4.17
2017-06-05T18:11:02.477Z,6.20
2017-06-05T18:13:30.011Z,3.50
2017-06-05T18:15:57.599Z,4.77
2017-06-05T18:18:25.143Z,3.70
2017-06-05T18:20:55.675Z,9.93
2017-06-05T18:23:24.792Z,5.93
2017-06-05T18:25:52.359Z,4.80
2017-06-05T18:28:20.244Z,5.30
2017-06-05T18:30:47.804Z,5.17
2017-06-05T18:33:15.362Z,4.53
2017-06-05T18:35:42.910Z,4.93
2017-06-05T18:38:10.448Z,4.43
2017-06-05T18:40:37.984Z,4.47
2017-06-05T18:43:06.403Z,6.03
2017-06-05T18:45:34.363Z,5.60
2017-06-05T18:48:01.940Z,5.23
2017-06-05T18:50:29.485Z,4.33
2017-06-05T18:52:57.020Z,4.67
2017-06-05T18:55:24.563Z,3.83
2017-06-05T18:57:52.867Z,5.10
2017-06-05T19:00:20.524Z,4.13
2017-06-05T19:02:48.063Z,3.30
2017-06-05T19:05:16.375Z,3.80
2017-06-05T19:07:43.920Z,4.40
2017-06-05T19:10:11.462Z,3.77
2017-06-05T19:12:39.020Z,4.63
2017-06-05T19:15:06.558Z,5.83
2017-06-05T19:17:34.903Z,4.97
2017-06-05T19:20:02.438Z,4.60
2017-06-05T19:22:30.000Z,6.87
2017-06-05T19:24:57.557Z,4.97
2017-06-05T19:27:25.104Z,5.70
2017-06-05T19:29:52.650Z,6.50
2017-06-05T19:32:20.248Z,5.63
2017-06-05T19:34:47.793Z,6.60
2017-06-05T19:37:15.376Z,4.23
2017-06-05T19:39:42.938Z,4.33
2017-06-05T19:42:10.479Z,5.63
2017-06-05T19:44:38.065Z,8.03
2017-06-05T19:47:05.598Z,6.17
2017-06-05T19:49:33.145Z,8.53
2017-06-05T19:52:00.679Z,6.50
2017-06-05T19:54:28.231Z,6.37
2017-06-05T19:56:56.546Z,6.13
2017-06-05T19:59:24.514Z,4.33
2017-06-05T20:01:52.062Z,4.17
2017-06-05T20:04:19.634Z,3.93
2017-06-05T20:06:47.505Z,4.87
2017-06-05T20:09:16.201Z,4.30
2017-06-05T20:11:43.768Z,4.80
2017-06-05T20:14:11.315Z,4.63
2017-06-05T20:16:38.876Z,3.67
2017-06-05T20:19:06.419Z,4.00
2017-06-05T20:21:34.819Z,5.00
2017-06-05T20:24:02.367Z,4.50
2017-06-05T20:26:29.935Z,6.27
2017-06-05T20:28:57.463Z,4.60
2017-06-05T20:31:25.007Z,8.53
2017-06-05T20:33:52.551Z,4.60
2017-06-05T20:36:20.851Z,5.10
2017-06-05T20:38:48.407Z,4.50
2017-06-05T20:41:15.945Z,4.20
2017-06-05T20:43:44.248Z,5.93
2017-06-05T20:46:11.784Z,5.20
2017-06-05T20:48:40.089Z,4.10
2017-06-05T20:51:07.634Z,3.53
2017-06-05T20:53:35.232Z,4.87
2017-06-05T20:56:02.770Z,3.93
2017-06-05T20:58:30.307Z,4.90
2017-06-05T21:00:57.975Z,5.03
2017-06-05T21:03:25.530Z,3.90
2017-06-05T21:05:53.063Z,4.03
2017-06-05T21:08:21.556Z,4.33
2017-06-05T21:10:49.101Z,4.53
2017-06-05T21:13:17.525Z,4.23
2017-06-05T21:15:45.069Z,5.17
2017-06-05T21:18:12.604Z,6.30
2017-06-05T21:20:40.909Z,4.17
2017-06-05T21:23:08.443Z,4.57
2017-06-05T21:25:36.755Z,3.90
2017-06-05T21:28:04.299Z,6.23
2017-06-05T21:30:31.837Z,5.70
2017-06-05T21:33:00.135Z,4.93
2017-06-05T21:35:27.673Z,4.50
2017-06-05T21:37:55.975Z,4.97
2017-06-05T21:40:23.518Z,4.30
2017-06-05T21:42:51.052Z,4.10
2017-06-05T21:45:19.357Z,5.60
2017-06-05T21:47:46.924Z,7.20
2017-06-05T21:50:14.463Z,38.97
2017-06-05T21:52:42.023Z,5.67
2017-06-05T21:55:09.563Z,4.63
2017-06-05T21:57:37.872Z,5.13
2017-06-05T22:00:05.412Z,5.60
2017-06-05T22:02:33.711Z,4.57
2017-06-05T22:05:01.253Z,5.53
2017-06-05T22:07:28.791Z,7.20
2017-06-05T22:09:57.097Z,5.30
2017-06-05T22:12:24.635Z,5.63
2017-06-05T22:14:52.972Z,6.50
2017-06-05T22:17:20.535Z,8.80
2017-06-05T22:19:59.143Z,7.17
2017-06-05T22:22:26.682Z,6.10
2017-06-05T22:24:54.223Z,6.07
2017-06-05T22:27:21.760Z,5.73
2017-06-05T22:29:50.063Z,6.87
2017-06-05T22:32:17.634Z,6.30
2017-06-05T22:34:45.167Z,6.60
2017-06-05T22:37:12.704Z,7.37
2017-06-05T22:39:41.015Z,7.30
2017-06-05T22:42:08.551Z,8.37
2017-06-05T22:44:36.869Z,6.33
2017-06-05T22:47:04.411Z,5.20
2017-06-05T22:49:31.968Z,7.10
2017-06-05T22:51:59.500Z,6.27
2017-06-05T22:54:27.800Z,6.33
2017-06-05T22:56:55.365Z,6.70
2017-06-05T22:59:22.898Z,6.00
2017-06-05T23:01:51.191Z,5.50
2017-06-05T23:04:18.719Z,6.40
2017-06-05T23:06:47.028Z,5.53
2017-06-05T23:09:14.579Z,7.10
2017-06-05T23:11:42.126Z,5.97
2017-06-05T23:14:10.419Z,5.27
2017-06-05T23:16:37.951Z,5.57
2017-06-05T23:19:06.258Z,5.57
2017-06-05T23:21:33.803Z,6.97
2017-06-05T23:24:01.347Z,7.60
2017-06-05T23:26:29.651Z,5.87
2017-06-05T23:28:57.180Z,6.23
2017-06-05T23:31:25.483Z,6.23
2017-06-05T23:33:53.044Z,5.43
2017-06-05T23:36:20.575Z,5.67
2017-06-05T23:38:48.877Z,6.73
2017-06-05T23:41:16.408Z,6.00
2017-06-05T23:43:44.715Z,6.47
2017-06-05T23:46:12.255Z,6.33
2017-06-05T23:48:39.787Z,5.47
2017-06-05T23:51:07.327Z,5.80
2017-06-05T23:53:34.868Z,5.83
2017-06-05T23:56:02.407Z,5.50
2017-06-05T23:58:29.952Z,6.17
